createdAt,value
2023-01-09T00:01:41.781Z,0.33
2023-01-09T00:04:10.565Z,0.34
2023-01-09T00:06:40.380Z,0.36
2023-01-09T00:09:08.446Z,0.37
2023-01-09T00:11:37.745Z,0.37
2023-01-09T00:14:05.719Z,0.37
2023-01-09T00:16:33.690Z,0.37
2023-01-09T00:19:01.806Z,0.37
2023-01-09T00:21:29.957Z,0.38
2023-01-09T00:23:57.916Z,0.38
2023-01-09T00:26:25.759Z,0.38
2023-01-09T00:28:54.420Z,0.35
2023-01-09T00:31:22.500Z,0.32
2023-01-09T00:34:07.971Z,0.31
2023-01-09T00:36:36.280Z,0.30
2023-01-09T00:39:05.686Z,0.31
2023-01-09T00:41:43.405Z,0.33
2023-01-09T00:44:18.006Z,0.34
2023-01-09T00:46:52.658Z,0.37
2023-01-09T00:49:21.590Z,0.40
2023-01-09T00:51:50.077Z,0.42
2023-01-09T00:54:20.292Z,0.44
2023-01-09T00:56:50.065Z,0.46
2023-01-09T00:59:18.079Z,0.49
2023-01-09T01:01:46.178Z,0.52
2023-01-09T01:04:32.774Z,0.54
2023-01-09T01:07:19.436Z,0.55
2023-01-09T01:09:47.368Z,0.56
2023-01-09T01:12:15.435Z,0.58
2023-01-09T01:14:43.617Z,0.60
2023-01-09T01:17:11.495Z,0.61
2023-01-09T01:19:39.446Z,0.62
2023-01-09T01:22:07.418Z,0.64
2023-01-09T01:24:35.322Z,0.66
2023-01-09T01:27:03.268Z,0.67
2023-01-09T01:29:31.222Z,0.69
2023-01-09T01:31:59.233Z,0.71
2023-01-09T01:34:29.069Z,0.73
2023-01-09T01:36:57.060Z,0.74
2023-01-09T01:39:24.907Z,0.74
2023-01-09T01:41:52.911Z,0.75
2023-01-09T01:45:00.101Z,0.76
2023-01-09T01:47:38.547Z,0.78
2023-01-09T01:50:33.423Z,0.79
2023-01-09T01:53:21.984Z,0.80
2023-01-09T01:56:14.718Z,0.83
2023-01-09T01:58:49.861Z,0.84
2023-01-09T02:01:22.690Z,0.85
2023-01-09T02:03:53.241Z,0.84
2023-01-09T02:06:21.552Z,0.86
2023-01-09T02:08:50.204Z,0.88
2023-01-09T02:11:20.502Z,0.90
2023-01-09T02:13:49.129Z,0.92
2023-01-09T02:16:26.327Z,0.95
2023-01-09T02:19:15.492Z,0.96
2023-01-09T02:22:21.125Z,0.99
2023-01-09T02:25:01.305Z,1.00
2023-01-09T02:27:44.426Z,1.02
2023-01-09T02:30:21.430Z,1.04
2023-01-09T02:33:23.150Z,1.04
2023-01-09T02:36:10.756Z,1.05
2023-01-09T02:38:55.050Z,1.06
2023-01-09T02:41:28.042Z,1.05
2023-01-09T02:44:24.474Z,1.04
2023-01-09T02:47:08.725Z,1.04
2023-01-09T02:49:40.045Z,1.05
2023-01-09T02:52:27.533Z,1.06
2023-01-09T02:55:08.985Z,1.07
2023-01-09T02:57:42.663Z,1.05
2023-01-09T03:00:16.596Z,1.03
2023-01-09T03:02:57.760Z,1.02
2023-01-09T03:05:47.626Z,1.01
2023-01-09T03:08:23.385Z,1.01
2023-01-09T03:11:04.799Z,1.02
2023-01-09T03:13:47.217Z,1.01
2023-01-09T03:16:20.718Z,1.00
2023-01-09T03:18:50.552Z,0.99
2023-01-09T03:21:20.342Z,0.99
2023-01-09T03:23:56.634Z,0.98
2023-01-09T03:26:25.485Z,0.98
2023-01-09T03:28:53.458Z,0.97
2023-01-09T03:31:22.380Z,0.95
2023-01-09T03:33:50.729Z,0.94
2023-01-09T03:36:20.382Z,0.94
2023-01-09T03:38:49.022Z,0.94
2023-01-09T03:41:18.013Z,0.93
2023-01-09T03:43:48.439Z,0.93
2023-01-09T03:46:18.128Z,0.93
2023-01-09T03:48:46.131Z,0.94
2023-01-09T03:51:14.197Z,0.94
2023-01-09T03:53:42.266Z,0.95
2023-01-09T03:56:10.212Z,0.96
2023-01-09T03:58:38.305Z,0.97
2023-01-09T04:01:09.685Z,0.98
2023-01-09T04:03:37.780Z,0.98
2023-01-09T04:06:06.858Z,0.99
2023-01-09T04:08:35.097Z,1.01
2023-01-09T04:11:03.275Z,1.01
2023-01-09T04:13:31.197Z,1.02
2023-01-09T04:15:59.359Z,1.04
2023-01-09T04:18:27.221Z,1.05
2023-01-09T04:20:55.535Z,1.05
2023-01-09T04:23:23.631Z,1.05
2023-01-09T04:25:51.496Z,1.04
2023-01-09T04:28:19.775Z,1.06
2023-01-09T04:30:47.749Z,1.06
2023-01-09T04:33:15.718Z,1.07
2023-01-09T04:35:43.620Z,1.07
2023-01-09T04:38:11.653Z,1.07
2023-01-09T04:40:39.641Z,1.07
2023-01-09T04:43:07.800Z,1.07
2023-01-09T04:45:35.767Z,1.07
2023-01-09T04:48:04.005Z,1.06
2023-01-09T04:50:31.918Z,1.06
2023-01-09T04:52:59.840Z,1.07
2023-01-09T04:55:28.002Z,1.07
2023-01-09T04:57:55.922Z,1.08
2023-01-09T05:00:23.994Z,1.08
2023-01-09T05:02:51.960Z,1.10
2023-01-09T05:05:19.955Z,1.10
2023-01-09T05:07:47.843Z,1.11
2023-01-09T05:10:15.831Z,1.11
2023-01-09T05:12:43.702Z,1.11
2023-01-09T05:15:12.390Z,1.11
2023-01-09T05:17:40.261Z,1.12
2023-01-09T05:20:09.032Z,1.12
2023-01-09T05:22:36.984Z,1.12
2023-01-09T05:25:05.826Z,1.13
2023-01-09T05:27:33.700Z,1.13
2023-01-09T05:30:01.798Z,1.13
2023-01-09T05:32:29.851Z,1.13
2023-01-09T05:34:58.228Z,1.13
2023-01-09T05:37:26.092Z,1.12
2023-01-09T05:39:53.996Z,1.12
2023-01-09T05:42:22.053Z,1.13
2023-01-09T05:44:49.944Z,1.12
2023-01-09T05:47:18.144Z,1.13
2023-01-09T05:49:46.148Z,1.13
2023-01-09T05:52:14.118Z,1.12
2023-01-09T05:54:42.184Z,1.11
2023-01-09T05:57:10.160Z,1.11
2023-01-09T05:59:38.153Z,1.13
2023-01-09T06:02:06.276Z,1.14
2023-01-09T06:04:34.296Z,1.15
2023-01-09T06:07:02.247Z,1.16
2023-01-09T06:09:31.434Z,1.17
2023-01-09T06:11:59.409Z,1.17
2023-01-09T06:14:27.393Z,1.17
2023-01-09T06:16:55.533Z,1.16
2023-01-09T06:19:23.448Z,1.16
2023-01-09T06:21:53.617Z,1.17
2023-01-09T06:24:21.776Z,1.17
2023-01-09T06:26:49.778Z,1.18
2023-01-09T06:29:17.956Z,1.19
2023-01-09T06:31:45.985Z,1.21
2023-01-09T06:34:14.005Z,1.22
2023-01-09T06:36:41.918Z,1.25
2023-01-09T06:39:10.015Z,1.27
2023-01-09T06:41:38.321Z,1.30
2023-01-09T06:44:06.233Z,1.31
2023-01-09T06:46:34.126Z,1.34
2023-01-09T06:49:02.029Z,1.36
2023-01-09T06:51:30.025Z,1.40
2023-01-09T06:53:58.061Z,1.44
2023-01-09T06:56:26.252Z,1.47
2023-01-09T06:58:54.166Z,1.51
2023-01-09T07:01:22.397Z,1.55
2023-01-09T07:03:50.460Z,1.59
2023-01-09T07:06:20.157Z,1.64
2023-01-09T07:08:48.091Z,1.69
2023-01-09T07:11:16.407Z,1.75
2023-01-09T07:13:44.690Z,1.83
2023-01-09T07:16:12.765Z,1.91
2023-01-09T07:18:40.769Z,1.98
2023-01-09T07:21:08.908Z,2.06
2023-01-09T07:23:36.867Z,2.15
2023-01-09T07:26:05.013Z,2.23
2023-01-09T07:28:32.862Z,2.30
2023-01-09T07:31:02.637Z,2.39
2023-01-09T07:33:30.797Z,2.49
2023-01-09T07:35:58.765Z,2.63
2023-01-09T07:38:27.244Z,2.78
2023-01-09T07:40:55.222Z,2.96
2023-01-09T07:43:23.602Z,3.29
2023-01-09T07:45:51.493Z,3.83
2023-01-09T07:48:19.428Z,4.45
2023-01-09T07:50:47.603Z,5.37
2023-01-09T07:53:15.603Z,6.57
2023-01-09T07:55:43.939Z,7.43
2023-01-09T07:58:12.255Z,8.10
2023-01-09T08:00:40.514Z,8.67
2023-01-09T08:03:08.721Z,9.11
2023-01-09T08:05:37.245Z,9.32
2023-01-09T08:08:05.495Z,9.51
2023-01-09T08:10:33.522Z,9.89
2023-01-09T08:13:01.422Z,10.48
2023-01-09T08:15:29.985Z,10.94
2023-01-09T08:17:57.888Z,11.20
2023-01-09T08:20:27.316Z,11.23
2023-01-09T08:22:56.942Z,11.14
2023-01-09T08:25:25.128Z,11.03
2023-01-09T08:27:53.087Z,10.94
2023-01-09T08:30:21.379Z,10.87
2023-01-09T08:32:54.059Z,10.81
2023-01-09T08:35:22.176Z,10.71
2023-01-09T08:37:51.417Z,10.48
2023-01-09T08:40:19.555Z,10.23
2023-01-09T08:43:06.221Z,9.97
2023-01-09T08:45:53.040Z,9.76
2023-01-09T08:48:21.024Z,9.61
2023-01-09T08:50:49.533Z,9.57
2023-01-09T08:53:17.549Z,9.66
2023-01-09T08:55:45.913Z,9.90
2023-01-09T08:58:13.978Z,10.25
2023-01-09T09:00:45.400Z,10.43
2023-01-09T09:03:13.313Z,10.48
2023-01-09T09:05:41.195Z,10.54
2023-01-09T09:08:09.415Z,10.74
2023-01-09T09:10:37.481Z,11.04
2023-01-09T09:13:05.749Z,11.26
2023-01-09T09:15:34.553Z,11.60
2023-01-09T09:18:05.650Z,12.17
2023-01-09T09:20:36.581Z,12.64
2023-01-09T09:23:05.757Z,12.90
2023-01-09T09:25:34.041Z,13.05
2023-01-09T09:28:02.239Z,13.17
2023-01-09T09:30:30.671Z,13.38
2023-01-09T09:32:58.659Z,13.68
2023-01-09T09:35:28.472Z,13.67
2023-01-09T09:38:04.802Z,13.41
2023-01-09T09:40:36.409Z,13.12
2023-01-09T09:43:32.473Z,12.74
2023-01-09T09:46:25.164Z,12.33
2023-01-09T09:49:02.470Z,11.99
2023-01-09T09:52:14.879Z,11.71
2023-01-09T09:54:49.614Z,11.50
2023-01-09T09:57:23.522Z,11.45
2023-01-09T09:59:53.231Z,11.38
2023-01-09T10:02:44.576Z,11.25
2023-01-09T10:05:21.517Z,11.09
2023-01-09T10:07:51.529Z,11.02
2023-01-09T10:10:47.472Z,11.08
2023-01-09T10:13:38.040Z,11.12
2023-01-09T10:16:18.288Z,11.08
2023-01-09T10:19:02.485Z,10.94
2023-01-09T10:21:48.684Z,10.70
2023-01-09T10:24:39.054Z,10.44
2023-01-09T10:27:29.841Z,10.18
2023-01-09T10:30:41.040Z,10.00
2023-01-09T10:33:24.169Z,9.90
2023-01-09T10:36:13.640Z,9.76
2023-01-09T10:38:47.628Z,9.62
2023-01-09T10:41:28.436Z,9.51
2023-01-09T10:44:06.839Z,9.45
2023-01-09T10:46:53.163Z,9.38
2023-01-09T10:49:23.353Z,9.28
2023-01-09T10:52:02.180Z,9.23
2023-01-09T10:54:30.248Z,9.13
2023-01-09T10:57:12.936Z,9.04
2023-01-09T10:59:42.261Z,8.90
2023-01-09T11:02:32.255Z,8.80
2023-01-09T11:05:01.749Z,8.73
2023-01-09T11:07:34.746Z,8.64
2023-01-09T11:10:09.761Z,8.55
2023-01-09T11:12:39.496Z,8.46
2023-01-09T11:15:23.947Z,8.44
2023-01-09T11:17:52.431Z,8.43
2023-01-09T11:20:23.467Z,8.44
2023-01-09T11:22:59.041Z,8.51
2023-01-09T11:25:29.030Z,8.55
2023-01-09T11:28:05.868Z,8.60
2023-01-09T11:30:54.154Z,8.61
2023-01-09T11:33:25.627Z,8.60
2023-01-09T11:36:05.362Z,8.58
2023-01-09T11:38:46.813Z,8.55
2023-01-09T11:41:21.063Z,8.53
2023-01-09T11:43:52.446Z,8.50
2023-01-09T11:46:50.213Z,8.46
2023-01-09T11:49:25.387Z,8.42
2023-01-09T11:52:15.280Z,8.38
2023-01-09T11:55:09.255Z,8.35
2023-01-09T11:57:37.247Z,8.30
2023-01-09T12:00:28.538Z,8.27
2023-01-09T12:03:38.515Z,8.22
2023-01-09T12:06:12.937Z,8.12
2023-01-09T12:08:58.338Z,8.07
2023-01-09T12:11:49.017Z,8.06
2023-01-09T12:14:26.903Z,8.04
2023-01-09T12:17:09.840Z,8.01
2023-01-09T12:20:02.853Z,8.00
2023-01-09T12:23:03.032Z,7.99
2023-01-09T12:25:52.859Z,7.97
2023-01-09T12:28:38.961Z,7.97
2023-01-09T12:31:12.887Z,7.94
2023-01-09T12:33:49.912Z,7.93
2023-01-09T12:36:26.764Z,7.92
2023-01-09T12:39:03.654Z,7.90
2023-01-09T12:41:43.857Z,7.88
2023-01-09T12:44:45.380Z,7.85
2023-01-09T12:47:25.190Z,7.81
2023-01-09T12:50:39.381Z,7.79
2023-01-09T12:53:10.397Z,7.78
2023-01-09T12:55:47.151Z,7.79
2023-01-09T12:58:42.278Z,7.80
2023-01-09T13:01:21.683Z,7.83
2023-01-09T13:04:12.932Z,7.88
2023-01-09T13:06:47.000Z,7.92
2023-01-09T13:09:22.392Z,7.95
2023-01-09T13:11:55.682Z,7.97
2023-01-09T13:14:44.218Z,7.98
2023-01-09T13:17:27.991Z,7.99
2023-01-09T13:19:56.868Z,7.99
2023-01-09T13:22:27.647Z,7.98
2023-01-09T13:25:27.008Z,7.98
2023-01-09T13:28:26.837Z,7.97
2023-01-09T13:30:58.789Z,7.96
2023-01-09T13:33:36.895Z,7.97
2023-01-09T13:36:05.995Z,7.96
2023-01-09T13:38:35.505Z,7.95
2023-01-09T13:41:32.655Z,7.94
2023-01-09T13:44:03.765Z,7.92
2023-01-09T13:46:41.873Z,7.92
2023-01-09T13:49:42.534Z,7.90
2023-01-09T13:52:30.789Z,7.89
2023-01-09T13:54:58.794Z,7.89
2023-01-09T13:57:43.072Z,7.89
2023-01-09T14:00:17.047Z,7.87
2023-01-09T14:02:46.869Z,7.84
2023-01-09T14:05:23.904Z,7.83
2023-01-09T14:08:05.084Z,7.80
2023-01-09T14:10:45.574Z,7.78
2023-01-09T14:13:15.374Z,7.77
2023-01-09T14:15:47.030Z,7.75
2023-01-09T14:18:26.861Z,7.75
2023-01-09T14:21:01.594Z,7.75
2023-01-09T14:23:58.563Z,7.74
2023-01-09T14:26:47.400Z,7.72
2023-01-09T14:29:37.194Z,7.70
2023-01-09T14:32:23.727Z,7.67
2023-01-09T14:35:01.087Z,7.63
2023-01-09T14:37:31.094Z,7.58
2023-01-09T14:39:59.889Z,7.54
2023-01-09T14:42:31.036Z,7.50
2023-01-09T14:45:04.527Z,7.46
2023-01-09T14:47:42.469Z,7.42
2023-01-09T14:50:16.491Z,7.38
2023-01-09T14:53:13.733Z,7.35
2023-01-09T14:55:57.805Z,7.32
2023-01-09T14:58:26.010Z,7.28
2023-01-09T15:01:03.378Z,7.24
2023-01-09T15:03:42.410Z,7.18
2023-01-09T15:06:41.231Z,7.14
2023-01-09T15:09:26.961Z,7.09
2023-01-09T15:12:02.262Z,7.05
2023-01-09T15:14:36.106Z,7.00
2023-01-09T15:17:04.477Z,6.96
2023-01-09T15:19:33.584Z,6.92
2023-01-09T15:22:07.111Z,6.87
2023-01-09T15:24:34.990Z,6.82
2023-01-09T15:27:12.726Z,6.76
2023-01-09T15:29:41.694Z,6.72
2023-01-09T15:32:25.178Z,6.69
2023-01-09T15:34:55.264Z,6.66
2023-01-09T15:37:34.283Z,6.64
2023-01-09T15:40:04.963Z,6.61
2023-01-09T15:42:58.365Z,6.57
2023-01-09T15:45:26.349Z,6.53
2023-01-09T15:47:55.237Z,6.50
2023-01-09T15:50:28.837Z,6.48
2023-01-09T15:52:57.175Z,6.46
2023-01-09T15:55:35.434Z,6.44
2023-01-09T15:58:05.184Z,6.42
2023-01-09T16:00:41.589Z,6.40
2023-01-09T16:03:18.894Z,6.38
2023-01-09T16:05:51.396Z,6.35
2023-01-09T16:08:31.705Z,6.33
2023-01-09T16:11:03.507Z,6.32
2023-01-09T16:13:35.092Z,6.30
2023-01-09T16:16:03.723Z,6.29
2023-01-09T16:18:51.925Z,6.28
2023-01-09T16:21:34.606Z,6.26
2023-01-09T16:24:41.242Z,6.23
2023-01-09T16:27:24.572Z,6.21
2023-01-09T16:29:57.748Z,6.18
2023-01-09T16:32:36.225Z,6.14
2023-01-09T16:35:07.523Z,6.11
2023-01-09T16:37:36.134Z,6.11
2023-01-09T16:40:22.520Z,6.13
2023-01-09T16:43:03.278Z,6.18
2023-01-09T16:45:33.288Z,6.20
2023-01-09T16:48:22.110Z,6.23
2023-01-09T16:50:50.551Z,6.25
2023-01-09T16:53:24.306Z,6.25
2023-01-09T16:55:54.073Z,6.26
2023-01-09T16:58:30.652Z,6.27
2023-01-09T17:00:59.294Z,6.27
2023-01-09T17:03:27.400Z,6.26
2023-01-09T17:05:58.875Z,6.25
2023-01-09T17:08:32.027Z,6.23
2023-01-09T17:11:00.053Z,6.22
2023-01-09T17:13:28.206Z,6.20
2023-01-09T17:15:57.817Z,6.19
2023-01-09T17:18:27.663Z,6.18
2023-01-09T17:20:58.665Z,6.16
2023-01-09T17:23:26.821Z,6.15
2023-01-09T17:26:16.623Z,6.15
2023-01-09T17:28:50.486Z,6.14
2023-01-09T17:31:19.078Z,6.13
2023-01-09T17:33:47.073Z,6.12
2023-01-09T17:36:32.208Z,6.12
2023-01-09T17:39:01.357Z,6.11
2023-01-09T17:41:31.230Z,6.09
2023-01-09T17:44:00.634Z,6.09
2023-01-09T17:46:32.501Z,6.08
2023-01-09T17:49:02.096Z,6.07
2023-01-09T17:51:30.256Z,6.07
2023-01-09T17:53:58.659Z,6.06
2023-01-09T17:56:33.406Z,6.06
2023-01-09T17:59:01.450Z,6.05
2023-01-09T18:01:29.613Z,6.04
2023-01-09T18:03:58.092Z,6.04
2023-01-09T18:06:26.157Z,6.03
2023-01-09T18:08:56.702Z,6.03
2023-01-09T18:11:26.300Z,6.04
2023-01-09T18:13:54.442Z,6.05
2023-01-09T18:16:25.919Z,6.05
2023-01-09T18:18:57.906Z,6.04
2023-01-09T18:21:28.630Z,6.04
2023-01-09T18:23:58.075Z,6.04
2023-01-09T18:26:25.965Z,6.04
2023-01-09T18:28:59.266Z,6.03
2023-01-09T18:31:28.526Z,6.02
2023-01-09T18:33:58.452Z,6.01
2023-01-09T18:36:29.723Z,6.01
2023-01-09T18:39:00.571Z,6.00
2023-01-09T18:41:29.850Z,5.96
2023-01-09T18:44:00.594Z,5.95
2023-01-09T18:46:32.706Z,5.93
2023-01-09T18:49:03.310Z,5.88
2023-01-09T18:51:33.728Z,5.83
2023-01-09T18:54:01.882Z,5.80
2023-01-09T18:56:30.079Z,5.76
2023-01-09T18:58:59.190Z,5.74
2023-01-09T19:01:28.869Z,5.70
2023-01-09T19:03:59.463Z,5.66
2023-01-09T19:06:29.279Z,5.63
2023-01-09T19:09:00.727Z,5.60
2023-01-09T19:11:28.934Z,5.57
2023-01-09T19:13:57.116Z,5.52
2023-01-09T19:16:25.362Z,5.48
2023-01-09T19:18:53.458Z,5.45
2023-01-09T19:21:23.586Z,5.42
2023-01-09T19:23:51.757Z,5.36
2023-01-09T19:26:23.940Z,5.32
2023-01-09T19:28:57.724Z,5.28
2023-01-09T19:31:28.448Z,5.25
2023-01-09T19:33:58.584Z,5.21
2023-01-09T19:36:28.003Z,5.17
2023-01-09T19:39:00.366Z,5.16
2023-01-09T19:41:29.725Z,5.15
2023-01-09T19:43:59.680Z,5.15
2023-01-09T19:46:28.670Z,5.15
2023-01-09T19:48:59.038Z,5.18
2023-01-09T19:51:27.234Z,5.23
2023-01-09T19:56:38.006Z,5.30
2023-01-09T19:59:06.382Z,5.35
2023-01-09T20:01:37.304Z,5.40
2023-01-09T20:04:10.520Z,5.45
2023-01-09T20:06:41.505Z,5.51
2023-01-09T20:09:12.253Z,5.55
2023-01-09T20:11:41.438Z,5.59
2023-01-09T20:14:12.814Z,5.62
2023-01-09T20:16:41.766Z,5.64
2023-01-09T20:19:11.459Z,5.66
2023-01-09T20:21:39.876Z,5.65
2023-01-09T20:24:10.835Z,5.65
2023-01-09T20:26:40.642Z,5.63
2023-01-09T20:29:08.792Z,5.61
2023-01-09T20:31:37.219Z,5.57
2023-01-09T20:34:05.249Z,5.52
2023-01-09T20:36:35.235Z,5.50
2023-01-09T20:39:06.479Z,5.47
2023-01-09T20:41:34.539Z,5.45
2023-01-09T20:44:09.522Z,5.43
2023-01-09T20:46:39.947Z,5.39
2023-01-09T20:49:11.570Z,5.40
2023-01-09T20:51:46.743Z,5.39
2023-01-09T20:54:16.544Z,5.39
2023-01-09T20:56:44.495Z,5.37
2023-01-09T20:59:17.041Z,5.37
2023-01-09T21:01:45.035Z,5.36
2023-01-09T21:04:13.609Z,5.34
2023-01-09T21:06:42.742Z,5.31
2023-01-09T21:09:11.027Z,5.29
2023-01-09T21:11:38.992Z,5.26
2023-01-09T21:14:06.956Z,5.22
2023-01-09T21:16:34.959Z,5.19
2023-01-09T21:19:03.102Z,5.16
2023-01-09T21:21:31.244Z,5.13
2023-01-09T21:24:00.653Z,5.10
2023-01-09T21:26:30.792Z,5.07
2023-01-09T21:29:01.330Z,5.04
2023-01-09T21:31:35.181Z,5.00
2023-01-09T21:34:07.048Z,4.96
2023-01-09T21:36:36.034Z,4.91
2023-01-09T21:39:07.860Z,4.86
2023-01-09T21:41:55.255Z,4.82
2023-01-09T21:44:41.583Z,4.80
2023-01-09T21:47:09.625Z,4.76
2023-01-09T21:49:43.860Z,4.72
2023-01-09T21:52:13.157Z,4.68
2023-01-09T21:54:41.788Z,4.64
2023-01-09T21:57:10.538Z,4.60
2023-01-09T21:59:38.611Z,4.56
2023-01-09T22:02:07.199Z,4.54
2023-01-09T22:04:35.273Z,4.55
2023-01-09T22:07:03.489Z,4.57
2023-01-09T22:09:31.594Z,4.59
2023-01-09T22:11:59.525Z,4.59
2023-01-09T22:14:27.639Z,4.59
2023-01-09T22:16:55.723Z,4.58
2023-01-09T22:19:23.661Z,4.55
2023-01-09T22:21:51.576Z,4.52
2023-01-09T22:24:21.704Z,4.51
2023-01-09T22:26:49.874Z,4.48
2023-01-09T22:29:18.424Z,4.46
2023-01-09T22:31:46.663Z,4.45
2023-01-09T22:34:16.771Z,4.44
2023-01-09T22:36:47.084Z,4.44
2023-01-09T22:39:17.764Z,4.43
2023-01-09T22:41:50.385Z,4.45
2023-01-09T22:44:19.472Z,4.45
2023-01-09T22:46:47.400Z,4.47
2023-01-09T22:49:15.352Z,4.47
2023-01-09T22:51:43.892Z,4.48
2023-01-09T22:54:11.975Z,4.49
2023-01-09T22:56:40.027Z,4.49
2023-01-09T22:59:07.875Z,4.48
2023-01-09T23:01:35.997Z,4.48
2023-01-09T23:04:04.136Z,4.48
2023-01-09T23:06:32.320Z,4.48
2023-01-09T23:09:00.397Z,4.49
2023-01-09T23:11:48.643Z,4.51
2023-01-09T23:14:17.810Z,4.54
2023-01-09T23:16:45.734Z,4.55
2023-01-09T23:19:17.478Z,4.57
2023-01-09T23:21:45.802Z,4.59
2023-01-09T23:24:16.200Z,4.61
2023-01-09T23:26:44.759Z,4.63
2023-01-09T23:29:13.435Z,4.66
2023-01-09T23:31:41.983Z,4.69
2023-01-09T23:34:14.589Z,4.70
2023-01-09T23:36:42.800Z,4.74
2023-01-09T23:39:11.177Z,4.76
2023-01-09T23:41:58.611Z,4.79
2023-01-09T23:44:27.439Z,4.81
2023-01-09T23:46:55.441Z,4.82
2023-01-09T23:49:23.642Z,4.85
2023-01-09T23:51:51.685Z,4.85
2023-01-09T23:54:19.554Z,4.87
2023-01-09T23:56:47.931Z,4.87
2023-01-09T23:59:17.757Z,4.87
